Airfield :
LOGIN :

Register | Disclaimer

   EN    FR    IT 

 










Legend :    VFR   Marginal VFR   IFR   Intensive IFR   Very Intensive IFR
Visi :
Ceiling :
>= 8 km
>= 3000ft
5 to 8 km
1000 to 3000 ft
1500m to 5 km
500 to 1000 ft
800 to 1500m
200 to 500 ft
< 800m
< 200 ft
Symbols :   Thunderstorms  Fog  Heavy snow  Heavy precipitations  Wind > 20 kt
SIGMETs :     Misc.  Thunderstorms  Icing  Turbulence  Mountain Waves  Volcanic Ashes






- Airport Elevation : 659 ft
- IATA code : LYN


LFLY - Lyon Bron

CURRENT METAR :
  • 200500Z AUTO 08002KT CAVOK 01/M00 Q1014 TEMPO 0800 BCFG VV///

EXPIRED METARs :
  • 200430Z AUTO VRB02KT CAVOK 02/00 Q1015 TEMPO 0800 BCFG VV///
  • 200400Z AUTO VRB02KT CAVOK 02/00 Q1015 TEMPO 0800 BCFG VV///
  • 200330Z AUTO 00000KT 9999 FEW034 02/M00 Q1015 TEMPO 3000 BR OVC004
  • 200300Z AUTO 00000KT CAVOK 02/00 Q1015 TEMPO 3000 BR OVC004
  • 200230Z AUTO 36003KT 9999 SCT035 04/01 Q1015 TEMPO 3000 BR OVC004

TAF AMD TAF LFLY
Valid from the 20 at 03:00 until the 21 at 00:00 UTC


200322Z 2003/2024 VRB02KT CAVOK
PROB30
TEMPO 2005/2008 0800 BCFG VV///
TEMPO 2007/2012 3000 BR OVC004
BECMG 2019/2022 2000 BR SCT002
PROB40 2022/2024 0400 FG BKN001
ATIS : +33 4 72 15 87 96



MET'MAP, your aeronautical weather chart ! - Copyright ORBIFLY December 2007 - Disclaimer

ORBIFLY MET'MAP TEAM :

Programming & Development : Alexandra Zaïnal
Concept & Development : Baudouin d'Aumeries
Co-Development & Prog : Marc-Olivier Méhu
Technical & hardware support : Manuel Goepfert

Contact : metmap@orbifly.com




SOURCES & CREDITS :

   NOAA